Kezdőlap
METAR-TAF:

METAR-TAF

Repülőterek :

Sparta, Wisconsin, Amerikai Egyesült Államok

földrajzi szélesség: 43-57-30N, földrajzi hosszúság: 090-44-16W, magasság: 255 m

Jelenlegi meteorológiai megfigyelések

A jelentés 44 perccel ezelõtt készült, 05:58 UTC
Szélcsend
Hőmérséklet 20°C
Páratartalom 100%
Légköri nyomás 1017 hPa
Látótávolság: 16.1 km
Szórványos felhőzet 3200 lábon
Borult 5500 lábon

METAR: KCMY 070558Z AUTO 00000KT 10SM SCT032 OVC055 20/20 A3004 RMK AO2 SLP172 T01970195 10248 20191 402480191 58001 $

Idő: 01:42 (06:42 UTC)


TAF: hiányzik

Meteorológiai megfigyelések és előrejelzések több, mint 4000 repülőtéren (METAR és TAF jelentéseket).

A térképen piros és sárga pontok jelzik az elérhető meteorológiai állomásokat.

Mozgassa az egeret a pont fölött, hogy megjelenjen az állomás neve.

Azután kattintson az időjárási megfigyelések és előrejelzések megtekintéséhez.

A térkép megváltoztatása: kattintson a fekete keresztel jelölt zöld gombra ráközelítéshez, a vonallal jelölt zöld gombra távolításhoz, vagy a zöld nyilakra a szomszédos térképek eléréséhez.


METAR-TAF: